createdAt,value
2023-07-25T00:01:54.211Z,96386.94
2023-07-25T00:04:21.134Z,96412.22
2023-07-25T00:06:48.039Z,96410.63
2023-07-25T00:09:14.847Z,96406.47
2023-07-25T00:11:41.669Z,96406.81
2023-07-25T00:14:08.486Z,96393.31
2023-07-25T00:16:35.372Z,96400.47
2023-07-25T00:19:02.199Z,96393.78
2023-07-25T00:21:29.131Z,96383.50
2023-07-25T00:23:55.991Z,96383.97
2023-07-25T00:26:22.897Z,96387.41
2023-07-25T00:28:49.652Z,96387.91
2023-07-25T00:31:16.469Z,96395.88
2023-07-25T00:33:43.423Z,96380.53
2023-07-25T00:36:10.463Z,96393.34
2023-07-25T00:38:37.312Z,96394.63
2023-07-25T00:41:04.181Z,96380.53
2023-07-25T00:43:31.207Z,96392.19
2023-07-25T00:45:58.351Z,96372.13
2023-07-25T00:48:25.420Z,96377.88
2023-07-25T00:50:52.264Z,96372.81
2023-07-25T00:53:19.309Z,96377.88
2023-07-25T00:55:46.188Z,96386.69
2023-07-25T00:58:13.069Z,96384.50
2023-07-25T01:00:40.107Z,96388.16
2023-07-25T01:03:07.872Z,96380.56
2023-07-25T01:05:37.876Z,96384.88
2023-07-25T01:08:04.896Z,96393.84
2023-07-25T01:10:33.688Z,96393.03
2023-07-25T01:13:00.565Z,96404.47
2023-07-25T01:15:28.794Z,96388.06
2023-07-25T01:17:55.856Z,96392.00
2023-07-25T01:20:23.625Z,96388.19
2023-07-25T01:22:52.095Z,96388.19
2023-07-25T01:25:18.964Z,96390.84
2023-07-25T01:27:45.862Z,96394.66
2023-07-25T01:30:12.872Z,96380.78
2023-07-25T01:32:39.861Z,96371.66
2023-07-25T01:35:07.958Z,96381.47
2023-07-25T01:37:34.894Z,96389.09
2023-07-25T01:40:01.808Z,96390.84
2023-07-25T01:42:28.693Z,96374.56
2023-07-25T01:44:55.551Z,96379.53
2023-07-25T01:47:27.345Z,96381.25
2023-07-25T01:49:54.675Z,96364.88
2023-07-25T01:52:21.981Z,96377.69
2023-07-25T01:54:51.143Z,96366.72
2023-07-25T01:57:18.483Z,96375.97
2023-07-25T01:59:45.362Z,96380.44
2023-07-25T02:02:12.250Z,96361.16
2023-07-25T02:04:39.071Z,96355.31
2023-07-25T02:07:06.233Z,96347.22
2023-07-25T02:09:33.078Z,96346.88
2023-07-25T02:11:59.925Z,96354.97
2023-07-25T02:14:26.882Z,96362.69
2023-07-25T02:16:54.345Z,96354.38
2023-07-25T02:19:21.708Z,96337.28
2023-07-25T02:21:48.604Z,96343.06
2023-07-25T02:24:15.494Z,96354.03
2023-07-25T02:26:42.393Z,96380.09
2023-07-25T02:29:09.291Z,96378.16
2023-07-25T02:31:36.493Z,96375.38
2023-07-25T02:34:03.576Z,96376.75
2023-07-25T02:36:30.533Z,96366.59
2023-07-25T02:38:57.352Z,96345.91
2023-07-25T02:41:25.739Z,96359.19
2023-07-25T02:43:52.696Z,96352.50
2023-07-25T02:46:19.661Z,96344.44
2023-07-25T02:48:46.488Z,96358.50
2023-07-25T02:51:13.865Z,96334.16
2023-07-25T02:53:40.898Z,96349.16
2023-07-25T02:56:07.807Z,96352.63
2023-07-25T02:58:34.725Z,96345.69
2023-07-25T03:01:01.712Z,96336.34
2023-07-25T03:03:28.671Z,96313.72
2023-07-25T03:05:55.693Z,96323.97
2023-07-25T03:08:22.560Z,96320.75
2023-07-25T03:10:49.436Z,96312.09
2023-07-25T03:13:16.613Z,96295.69
2023-07-25T03:15:43.519Z,96298.56
2023-07-25T03:18:10.430Z,96289.00
2023-07-25T03:20:37.331Z,96280.34
2023-07-25T03:23:04.310Z,96276.50
2023-07-25T03:25:31.118Z,96277.31
2023-07-25T03:27:57.915Z,96270.97
2023-07-25T03:30:24.838Z,96273.63
2023-07-25T03:32:51.645Z,96267.03
2023-07-25T03:35:18.578Z,96290.44
2023-07-25T03:37:45.391Z,96285.00
2023-07-25T03:40:12.417Z,96277.28
2023-07-25T03:42:39.270Z,96289.25
2023-07-25T03:45:06.564Z,96281.78
2023-07-25T03:47:34.169Z,96259.97
2023-07-25T03:50:01.015Z,96262.59
2023-07-25T03:52:28.557Z,96287.28
2023-07-25T03:54:55.465Z,96277.16
2023-07-25T03:57:22.298Z,96285.22
2023-07-25T03:59:49.165Z,96287.19
2023-07-25T04:02:22.192Z,96286.97
2023-07-25T04:04:52.537Z,96286.88
2023-07-25T04:07:19.489Z,96274.06
2023-07-25T04:09:46.312Z,96289.44
2023-07-25T04:12:13.178Z,96289.22
2023-07-25T04:14:41.943Z,96275.72
2023-07-25T04:17:08.826Z,96282.50
2023-07-25T04:19:35.679Z,96301.91
2023-07-25T04:22:02.582Z,96310.44
2023-07-25T04:24:29.446Z,96288.97
2023-07-25T04:26:56.301Z,96287.13
2023-07-25T04:29:23.143Z,96294.66
2023-07-25T04:31:49.973Z,96302.59
2023-07-25T04:34:16.852Z,96297.06
2023-07-25T04:36:43.803Z,96314.94
2023-07-25T04:39:10.747Z,96324.31
2023-07-25T04:41:37.666Z,96332.75
2023-07-25T04:44:04.716Z,96324.56
2023-07-25T04:46:31.686Z,96320.91
2023-07-25T04:48:58.559Z,96345.25
2023-07-25T04:51:25.525Z,96340.84
2023-07-25T04:53:55.224Z,96345.91
2023-07-25T04:56:22.034Z,96339.38
2023-07-25T04:58:48.885Z,96352.97
2023-07-25T05:01:16.496Z,96350.69
2023-07-25T05:03:43.489Z,96350.31
2023-07-25T05:06:10.336Z,96351.03
2023-07-25T05:08:37.259Z,96349.88
2023-07-25T05:11:04.500Z,96344.22
2023-07-25T05:13:31.379Z,96334.75
2023-07-25T05:15:58.312Z,96337.63
2023-07-25T05:18:25.267Z,96337.72
2023-07-25T05:20:52.063Z,96347.09
2023-07-25T05:23:18.971Z,96342.22
2023-07-25T05:25:49.012Z,96338.94
2023-07-25T05:28:16.250Z,96316.53
2023-07-25T05:30:43.096Z,96319.22
2023-07-25T05:33:09.977Z,96317.00
2023-07-25T05:35:38.669Z,96325.56
2023-07-25T05:38:09.319Z,96315.19
2023-07-25T05:40:36.631Z,96317.69
2023-07-25T05:43:04.312Z,96309.94
2023-07-25T05:45:31.376Z,96320.00
2023-07-25T05:47:58.322Z,96303.63
2023-07-25T05:50:25.204Z,96312.22
2023-07-25T05:52:52.038Z,96296.88
2023-07-25T05:55:18.915Z,96310.59
2023-07-25T05:57:45.840Z,96308.94
2023-07-25T06:00:13.321Z,96312.63
2023-07-25T06:02:40.224Z,96305.59
2023-07-25T06:05:08.273Z,96306.06
2023-07-25T06:07:35.118Z,96298.78
2023-07-25T06:10:03.195Z,96306.25
2023-07-25T06:12:30.434Z,96298.38
2023-07-25T06:14:57.265Z,96295.84
2023-07-25T06:17:24.272Z,96284.69
2023-07-25T06:19:51.098Z,96293.66
2023-07-25T06:22:18.061Z,96290.00
2023-07-25T06:24:45.020Z,96287.09
2023-07-25T06:27:11.843Z,96282.38
2023-07-25T06:29:38.670Z,96279.75
2023-07-25T06:32:05.868Z,96266.09
2023-07-25T06:34:32.696Z,96262.63
2023-07-25T06:36:59.487Z,96247.63
2023-07-25T06:39:26.365Z,96257.00
2023-07-25T06:41:53.227Z,96246.84
2023-07-25T06:44:21.140Z,96238.25
2023-07-25T06:46:48.200Z,96227.47
2023-07-25T06:49:15.275Z,96215.63
2023-07-25T06:51:42.113Z,96220.38
2023-07-25T06:54:09.049Z,96213.28
2023-07-25T06:56:35.891Z,96208.88
2023-07-25T06:59:02.814Z,96199.84
2023-07-25T07:01:30.136Z,96197.81
2023-07-25T07:03:57.230Z,96205.06
2023-07-25T07:06:24.055Z,96200.63
2023-07-25T07:08:50.865Z,96210.41
2023-07-25T07:11:18.372Z,96201.59
2023-07-25T07:13:45.248Z,96188.09
2023-07-25T07:16:12.108Z,96189.44
2023-07-25T07:18:39.066Z,96201.19
2023-07-25T07:21:06.766Z,96206.31
2023-07-25T07:23:33.726Z,96215.88
2023-07-25T07:26:00.571Z,96209.84
2023-07-25T07:28:28.176Z,96217.81
2023-07-25T07:30:55.045Z,96204.84
2023-07-25T07:33:23.331Z,96205.34
2023-07-25T07:35:50.202Z,96203.97
2023-07-25T07:38:17.024Z,96214.22
2023-07-25T07:40:43.860Z,96214.44
2023-07-25T07:43:10.765Z,96217.53
2023-07-25T07:45:37.578Z,96226.59
2023-07-25T07:48:04.704Z,96219.69
2023-07-25T07:50:34.416Z,96233.41
2023-07-25T07:53:02.425Z,96229.06
2023-07-25T07:55:29.859Z,96225.75
2023-07-25T07:57:56.861Z,96214.66
2023-07-25T08:00:25.195Z,96217.97
2023-07-25T08:02:53.331Z,96213.31
2023-07-25T08:05:20.265Z,96230.66
2023-07-25T08:07:47.574Z,96212.03
2023-07-25T08:10:14.740Z,96221.81
2023-07-25T08:12:42.070Z,96228.84
2023-07-25T08:15:09.612Z,96222.22
2023-07-25T08:17:36.721Z,96208.28
2023-07-25T08:20:04.077Z,96225.75
2023-07-25T08:22:30.901Z,96229.56
2023-07-25T08:24:59.419Z,96223.44
2023-07-25T08:27:26.372Z,96225.03
2023-07-25T08:29:53.300Z,96229.09
2023-07-25T08:32:20.182Z,96229.38
2023-07-25T08:34:47.164Z,96237.13
2023-07-25T08:37:13.996Z,96228.84
2023-07-25T08:39:40.811Z,96228.56
2023-07-25T08:42:10.701Z,96221.63
2023-07-25T08:44:38.389Z,96222.44
2023-07-25T08:47:11.103Z,96220.59
2023-07-25T08:49:41.553Z,96234.75
2023-07-25T08:52:09.427Z,96213.09
2023-07-25T08:54:38.292Z,96215.78
2023-07-25T08:57:05.780Z,96231.56
2023-07-25T08:59:33.083Z,96234.25
2023-07-25T09:02:00.550Z,96237.72
2023-07-25T09:04:29.510Z,96223.78
2023-07-25T09:06:56.376Z,96245.47
2023-07-25T09:09:24.754Z,96248.63
2023-07-25T09:11:51.677Z,96262.50
2023-07-25T09:14:18.626Z,96263.78
2023-07-25T09:16:45.507Z,96262.66
2023-07-25T09:19:13.855Z,96266.84
2023-07-25T09:21:51.710Z,96254.50
2023-07-25T09:24:19.011Z,96245.03
2023-07-25T09:26:53.535Z,96238.59
2023-07-25T09:29:22.160Z,96223.34
2023-07-25T09:31:49.141Z,96219.06
2023-07-25T09:34:24.476Z,96226.56
2023-07-25T09:36:52.683Z,96230.06
2023-07-25T09:39:19.532Z,96216.22
2023-07-25T09:41:46.954Z,96214.63
2023-07-25T09:44:14.317Z,96218.16
2023-07-25T09:46:52.317Z,96216.06
2023-07-25T09:49:22.356Z,96206.44
2023-07-25T09:52:04.482Z,96213.38
2023-07-25T09:54:31.316Z,96221.09
2023-07-25T09:56:59.016Z,96219.44
2023-07-25T09:59:26.037Z,96232.47
2023-07-25T10:01:53.676Z,96251.63
2023-07-25T10:04:23.382Z,96292.31
2023-07-25T10:06:50.750Z,96298.78
2023-07-25T10:09:18.864Z,96293.09
2023-07-25T10:11:47.659Z,96289.34
2023-07-25T10:14:15.115Z,96278.09
2023-07-25T10:16:42.368Z,96280.31
2023-07-25T10:19:09.398Z,96281.53
2023-07-25T10:21:52.594Z,96279.00
2023-07-25T10:24:21.416Z,96270.69
2023-07-25T10:26:58.450Z,96268.03
2023-07-25T10:29:38.896Z,96272.91
2023-07-25T10:32:08.286Z,96260.47
2023-07-25T10:34:48.274Z,96260.31
2023-07-25T10:37:24.714Z,96257.22
2023-07-25T10:40:17.647Z,96244.31
2023-07-25T10:43:04.352Z,96258.69
2023-07-25T10:45:34.529Z,96254.84
2023-07-25T10:48:01.821Z,96236.28
2023-07-25T10:50:46.889Z,96241.47
2023-07-25T10:53:18.120Z,96230.50
2023-07-25T10:56:11.606Z,96245.38
2023-07-25T10:59:00.968Z,96236.44
2023-07-25T11:01:41.527Z,96244.94
2023-07-25T11:04:29.336Z,96232.66
2023-07-25T11:07:14.723Z,96232.03
2023-07-25T11:09:45.657Z,96224.16
2023-07-25T11:12:13.404Z,96235.28
2023-07-25T11:14:50.606Z,96239.00
2023-07-25T11:17:17.539Z,96227.47
2023-07-25T11:19:44.403Z,96211.75
2023-07-25T11:22:13.031Z,96228.59
2023-07-25T11:24:48.378Z,96202.25
2023-07-25T11:27:15.851Z,96216.75
2023-07-25T11:29:42.851Z,96220.03
2023-07-25T11:32:09.925Z,96222.94
2023-07-25T11:34:36.852Z,96204.59
2023-07-25T11:37:12.962Z,96217.31
2023-07-25T11:39:39.898Z,96219.47
2023-07-25T11:42:09.436Z,96202.38
2023-07-25T11:44:36.462Z,96190.25
2023-07-25T11:47:03.809Z,96206.19
2023-07-25T11:49:47.491Z,96201.56
2023-07-25T11:52:17.050Z,96190.13
2023-07-25T11:54:44.028Z,96191.78
2023-07-25T11:57:12.266Z,96186.84
2023-07-25T11:59:42.784Z,96212.56
2023-07-25T12:02:11.217Z,96180.16
2023-07-25T12:04:45.588Z,96195.97
2023-07-25T12:07:16.245Z,96200.72
2023-07-25T12:09:56.326Z,96192.06
2023-07-25T12:12:23.351Z,96195.19
2023-07-25T12:14:58.689Z,96181.63
2023-07-25T12:17:42.248Z,96188.75
2023-07-25T12:20:19.910Z,96178.97
2023-07-25T12:22:47.707Z,96183.06
2023-07-25T12:25:19.295Z,96183.09
2023-07-25T12:27:47.880Z,96182.31
2023-07-25T12:30:15.502Z,96179.00
2023-07-25T12:32:42.427Z,96172.75
2023-07-25T12:35:11.138Z,96166.69
2023-07-25T12:37:37.967Z,96161.41
2023-07-25T12:40:05.446Z,96174.34
2023-07-25T12:42:32.254Z,96166.41
2023-07-25T12:45:03.956Z,96159.19
2023-07-25T12:47:30.824Z,96142.22
2023-07-25T12:49:57.704Z,96137.28
2023-07-25T12:52:24.517Z,96140.94
2023-07-25T12:54:51.395Z,96143.19
2023-07-25T12:57:18.361Z,96132.81
2023-07-25T12:59:46.408Z,96146.97
2023-07-25T13:02:19.543Z,96092.22
2023-07-25T13:04:46.753Z,96102.13
2023-07-25T13:07:14.883Z,96060.75
2023-07-25T13:09:41.836Z,96041.00
2023-07-25T13:12:09.041Z,96086.91
2023-07-25T13:14:35.976Z,96138.38
2023-07-25T13:17:02.992Z,96056.19
2023-07-25T13:19:32.435Z,96067.34
2023-07-25T13:21:59.347Z,96041.31
2023-07-25T13:24:26.348Z,96096.97
2023-07-25T13:26:53.270Z,96103.97
2023-07-25T13:29:20.338Z,96087.66
2023-07-25T13:31:47.262Z,96079.16
2023-07-25T13:34:14.338Z,96088.19
2023-07-25T13:36:41.300Z,96064.44
2023-07-25T13:39:08.732Z,96042.31
2023-07-25T13:41:35.740Z,96084.06
2023-07-25T13:44:02.867Z,96041.06
2023-07-25T13:46:29.939Z,96075.22
2023-07-25T13:48:56.903Z,96030.75
2023-07-25T13:51:24.029Z,96047.06
2023-07-25T13:53:51.045Z,96031.06
2023-07-25T13:56:20.592Z,96076.16
2023-07-25T13:58:47.587Z,96117.69
2023-07-25T14:01:14.950Z,96023.28
2023-07-25T14:03:43.443Z,96051.69
2023-07-25T14:06:10.674Z,96003.34
2023-07-25T14:08:37.695Z,96068.97
2023-07-25T14:11:04.671Z,96063.34
2023-07-25T14:13:32.075Z,96074.00
2023-07-25T14:16:00.588Z,96066.63
2023-07-25T14:18:27.606Z,96053.38
2023-07-25T14:20:56.609Z,96062.16
2023-07-25T14:23:23.815Z,96102.38
2023-07-25T14:25:51.145Z,96103.16
2023-07-25T14:28:18.056Z,96099.78
2023-07-25T14:30:44.984Z,96163.25
2023-07-25T14:33:13.897Z,96156.41
2023-07-25T14:35:43.265Z,96068.38
2023-07-25T14:38:14.027Z,96069.25
2023-07-25T14:40:41.686Z,96147.50
2023-07-25T14:43:08.739Z,96137.94
2023-07-25T14:45:35.843Z,96144.78
2023-07-25T14:48:05.996Z,96116.75
2023-07-25T14:50:34.062Z,96139.50
2023-07-25T14:53:01.120Z,96147.50
2023-07-25T14:55:29.324Z,96101.44
2023-07-25T14:57:56.241Z,96131.41
2023-07-25T15:00:25.493Z,96187.91
2023-07-25T15:02:52.776Z,96080.31
2023-07-25T15:05:20.025Z,96103.06
2023-07-25T15:07:50.077Z,96109.19
2023-07-25T15:10:17.067Z,96093.34
2023-07-25T15:12:44.116Z,96085.03
2023-07-25T15:15:11.732Z,96097.28
2023-07-25T15:17:38.884Z,96100.28
2023-07-25T15:20:11.629Z,96107.59
2023-07-25T15:22:39.029Z,96078.94
2023-07-25T15:25:06.544Z,96094.50
2023-07-25T15:27:34.133Z,96043.31
2023-07-25T15:30:01.348Z,96165.41
2023-07-25T15:32:28.615Z,96035.00
2023-07-25T15:34:55.643Z,96043.56
2023-07-25T15:37:22.584Z,96066.34
2023-07-25T15:39:49.635Z,96025.41
2023-07-25T15:42:16.689Z,96118.28
2023-07-25T15:44:43.732Z,96163.50
2023-07-25T15:47:10.809Z,96076.84
2023-07-25T15:52:28.051Z,96048.00
2023-07-25T15:54:55.439Z,96048.81
2023-07-25T15:57:22.473Z,96091.00
2023-07-25T15:59:49.528Z,96082.56
2023-07-25T16:02:17.070Z,96089.06
2023-07-25T16:04:44.016Z,96063.22
2023-07-25T16:07:10.988Z,96071.16
2023-07-25T16:09:38.838Z,96104.91
2023-07-25T16:12:07.475Z,96080.09
2023-07-25T16:14:34.384Z,96149.75
2023-07-25T16:17:01.406Z,96076.28
2023-07-25T16:19:28.716Z,96101.28
2023-07-25T16:21:55.610Z,96061.91
2023-07-25T16:24:22.730Z,96098.50
2023-07-25T16:26:49.617Z,96136.28
2023-07-25T16:29:19.630Z,96099.44
2023-07-25T16:31:51.321Z,96093.41
2023-07-25T16:34:18.652Z,96142.59
2023-07-25T16:36:45.546Z,96073.72
2023-07-25T16:39:12.541Z,96118.63
2023-07-25T16:41:39.484Z,96078.88
2023-07-25T16:44:06.390Z,96111.75
2023-07-25T16:46:33.416Z,96115.41
2023-07-25T16:49:00.354Z,96066.06
2023-07-25T16:51:37.053Z,96081.13
2023-07-25T16:54:03.988Z,96102.31
2023-07-25T16:56:31.210Z,96071.16
2023-07-25T16:58:58.470Z,96106.03
2023-07-25T17:01:25.358Z,96103.91
2023-07-25T17:03:52.395Z,96112.75
2023-07-25T17:06:19.276Z,96095.91
2023-07-25T17:08:47.187Z,96191.66
2023-07-25T17:11:15.993Z,96201.03
2023-07-25T17:13:43.131Z,96156.31
2023-07-25T17:16:10.967Z,96193.72
2023-07-25T17:18:37.886Z,96204.97
2023-07-25T17:21:04.814Z,96198.78
2023-07-25T17:23:31.762Z,96195.09
2023-07-25T17:25:58.624Z,96183.06
2023-07-25T17:28:25.863Z,96187.41
2023-07-25T17:30:52.872Z,96192.50
2023-07-25T17:33:19.787Z,96205.88
2023-07-25T17:35:46.737Z,96203.44
2023-07-25T17:38:15.148Z,96179.38
2023-07-25T17:40:42.980Z,96222.47
2023-07-25T17:43:09.864Z,96216.06
2023-07-25T17:45:39.610Z,96155.75
2023-07-25T17:48:06.954Z,96207.63
2023-07-25T17:50:33.853Z,96219.06
2023-07-25T17:53:00.936Z,96162.16
2023-07-25T17:55:28.482Z,96219.13
2023-07-25T17:57:55.337Z,96214.09
2023-07-25T18:00:22.307Z,96229.97
2023-07-25T18:02:49.320Z,96201.59
2023-07-25T18:05:16.306Z,96233.13
2023-07-25T18:07:43.173Z,96241.09
2023-07-25T18:10:10.202Z,96249.50
2023-07-25T18:12:37.086Z,96230.88
2023-07-25T18:15:04.386Z,96260.38
2023-07-25T18:17:31.305Z,96259.75
2023-07-25T18:19:58.155Z,96253.28
2023-07-25T18:22:27.107Z,96290.09
2023-07-25T18:24:54.025Z,96280.50
2023-07-25T18:27:20.977Z,96293.72
2023-07-25T18:29:47.806Z,96284.66
2023-07-25T18:32:14.688Z,96293.97
2023-07-25T18:34:41.539Z,96280.22
2023-07-25T18:37:08.676Z,96300.53
2023-07-25T18:39:35.588Z,96303.38
2023-07-25T18:42:02.575Z,96301.34
2023-07-25T18:44:29.506Z,96307.50
2023-07-25T18:46:56.372Z,96338.91
2023-07-25T18:49:24.823Z,96338.84
2023-07-25T18:51:52.232Z,96344.19
2023-07-25T18:54:19.147Z,96367.41
2023-07-25T18:56:46.028Z,96359.22
2023-07-25T18:59:12.864Z,96354.47
2023-07-25T19:01:39.778Z,96368.81
2023-07-25T19:04:06.914Z,96357.50
2023-07-25T19:06:34.254Z,96396.03
2023-07-25T19:09:01.433Z,96372.72
2023-07-25T19:11:28.297Z,96390.72
2023-07-25T19:13:55.195Z,96377.09
2023-07-25T19:16:22.301Z,96409.19
2023-07-25T19:18:51.659Z,96404.09
2023-07-25T19:21:19.437Z,96396.91
2023-07-25T19:23:46.445Z,96401.50
2023-07-25T19:26:13.283Z,96406.69
2023-07-25T19:28:40.200Z,96386.31
2023-07-25T19:31:07.813Z,96414.03
2023-07-25T19:33:34.888Z,96415.78
2023-07-25T19:36:01.982Z,96417.50
2023-07-25T19:38:29.250Z,96405.47
2023-07-25T19:40:56.264Z,96443.34
2023-07-25T19:43:23.444Z,96413.94
2023-07-25T19:45:50.439Z,96437.50
2023-07-25T19:48:18.279Z,96457.56
2023-07-25T19:50:48.091Z,96452.81
2023-07-25T19:53:15.904Z,96454.41
2023-07-25T19:55:42.919Z,96465.28
2023-07-25T19:58:09.792Z,96469.13
2023-07-25T20:00:38.154Z,96455.75
2023-07-25T20:03:05.513Z,96434.25
2023-07-25T20:05:32.631Z,96443.94
2023-07-25T20:08:00.775Z,96416.91
2023-07-25T20:10:27.673Z,96469.59
2023-07-25T20:12:54.506Z,96457.81
2023-07-25T20:15:21.529Z,96489.25
2023-07-25T20:17:51.670Z,96496.38
2023-07-25T20:20:18.624Z,96454.63
2023-07-25T20:22:45.556Z,96485.41
2023-07-25T20:25:16.208Z,96496.81
2023-07-25T20:27:43.115Z,96476.81
2023-07-25T20:30:12.344Z,96486.13
2023-07-25T20:32:39.488Z,96507.44
2023-07-25T20:35:06.591Z,96509.94
2023-07-25T20:37:33.726Z,96509.13
2023-07-25T20:40:00.549Z,96512.41
2023-07-25T20:42:27.466Z,96500.16
2023-07-25T20:44:54.284Z,96501.59
2023-07-25T20:47:21.108Z,96517.28
2023-07-25T20:49:48.012Z,96490.88
2023-07-25T20:52:14.838Z,96508.81
2023-07-25T20:54:41.653Z,96513.06
2023-07-25T20:57:08.476Z,96513.00
2023-07-25T20:59:35.315Z,96525.63
2023-07-25T21:02:04.680Z,96499.75
2023-07-25T21:04:31.528Z,96505.28
2023-07-25T21:06:58.412Z,96502.47
2023-07-25T21:09:28.187Z,96532.28
2023-07-25T21:11:55.122Z,96535.22
2023-07-25T21:14:22.368Z,96530.81
2023-07-25T21:16:51.405Z,96526.75
2023-07-25T21:19:18.351Z,96561.19
2023-07-25T21:21:45.222Z,96546.63
2023-07-25T21:24:12.111Z,96523.50
2023-07-25T21:26:38.963Z,96551.66
2023-07-25T21:29:05.808Z,96559.53
2023-07-25T21:31:32.688Z,96552.25
2023-07-25T21:34:02.413Z,96575.97
2023-07-25T21:36:30.569Z,96579.03
2023-07-25T21:38:57.630Z,96575.41
2023-07-25T21:41:24.504Z,96578.28
2023-07-25T21:43:51.408Z,96562.50
2023-07-25T21:46:18.299Z,96576.13
2023-07-25T21:48:46.068Z,96583.69
2023-07-25T21:51:13.125Z,96591.25
2023-07-25T21:53:40.169Z,96587.22
2023-07-25T21:56:07.020Z,96618.31
2023-07-25T21:58:33.891Z,96598.88
2023-07-25T22:01:00.801Z,96600.47
2023-07-25T22:03:33.076Z,96556.69
2023-07-25T22:06:00.719Z,96577.72
2023-07-25T22:08:27.940Z,96601.53
2023-07-25T22:10:55.710Z,96605.75
2023-07-25T22:13:23.882Z,96597.84
2023-07-25T22:15:50.934Z,96580.84
2023-07-25T22:18:17.958Z,96605.81
2023-07-25T22:20:51.568Z,96608.69
2023-07-25T22:23:20.372Z,96599.81
2023-07-25T22:25:47.302Z,96628.19
2023-07-25T22:28:14.149Z,96591.47
2023-07-25T22:30:40.994Z,96628.22
2023-07-25T22:33:07.840Z,96600.03
2023-07-25T22:35:35.991Z,96630.09
2023-07-25T22:38:04.246Z,96625.06
2023-07-25T22:40:31.365Z,96612.88
2023-07-25T22:42:58.201Z,96619.59
2023-07-25T22:45:27.019Z,96618.19
2023-07-25T22:47:54.508Z,96615.84
2023-07-25T22:50:21.749Z,96634.09
2023-07-25T22:52:49.136Z,96639.19
2023-07-25T22:55:19.063Z,96619.13
2023-07-25T22:57:46.346Z,96650.41
2023-07-25T23:00:13.577Z,96630.50
2023-07-25T23:02:40.912Z,96616.91
2023-07-25T23:05:08.271Z,96598.03
2023-07-25T23:07:35.354Z,96625.25
2023-07-25T23:10:03.125Z,96559.72
2023-07-25T23:12:30.094Z,96611.66
2023-07-25T23:14:57.114Z,96593.41
2023-07-25T23:17:25.056Z,96629.31
2023-07-25T23:19:52.047Z,96646.38
2023-07-25T23:22:19.707Z,96650.84
2023-07-25T23:24:46.796Z,96617.34
2023-07-25T23:27:13.699Z,96622.25
2023-07-25T23:29:40.554Z,96592.78
2023-07-25T23:32:07.822Z,96650.84
2023-07-25T23:34:50.397Z,96617.38
2023-07-25T23:37:18.199Z,96660.03
2023-07-25T23:39:45.333Z,96663.06
2023-07-25T23:42:12.743Z,96642.56
2023-07-25T23:44:39.748Z,96644.59
2023-07-25T23:47:07.208Z,96662.66
2023-07-25T23:49:34.876Z,96662.88
2023-07-25T23:52:02.257Z,96657.59
2023-07-25T23:54:29.112Z,96668.16
2023-07-25T23:56:55.970Z,96654.13
2023-07-25T23:59:22.929Z,96645.38
